Date,TemperatureHighF,TemperatureAvgF,TemperatureLowF,DewpointHighF,DewpointAvgF,DewpointLowF,HumidityHigh,HumidityAvg,HumidityLow,PressureMaxIn,PressureMinIn,WindSpeedMaxMPH,WindSpeedAvgMPH,GustSpeedMaxMPH,PrecipitationSumIn
2014-3-1,64,58,52,51,48,45,89,70,50,29.88,29.62,18,3,20,0.00
2014-3-2,65,56,48,52,49,45,92,76,58,30.13,29.88,11,1,13,0.00
2014-3-3,67,56,47,56,51,45,97,84,61,30.16,30.03,9,1,9,0.00
2014-3-4,69,61,54,56,54,51,92,77,57,30.09,30.00,11,2,12,0.00
2014-3-5,71,62,55,58,55,52,92,79,62,30.11,30.00,9,1,10,0.00
2014-3-6,74,63,53,61,55,46,90,75,55,30.09,30.00,14,4,17,0.00
2014-3-7,66,56,49,51,49,46,91,78,58,30.15,30.05,11,1,11,0.00
2014-3-8,76,60,46,54,48,43,92,67,33,30.19,30.09,8,1,9,0.00
2014-3-9,74,64,52,54,50,47,85,62,39,30.18,30.05,10,1,11,0.00
2014-3-10,76,62,51,55,50,43,83,65,39,30.12,30.02,18,4,18,0.00
2014-3-11,68,57,46,48,45,41,86,66,38,30.11,29.97,9,1,10,0.00
2014-3-12,73,58,47,53,45,40,89,65,32,30.07,29.94,9,2,12,0.00
2014-3-13,77,60,42,44,40,32,84,51,22,30.00,29.92,9,1,9,0.00
2014-3-14,76,62,47,45,40,36,69,46,25,30.16,30.00,12,2,13,0.00
2014-3-15,78,64,50,51,46,41,75,54,34,30.28,30.16,9,1,9,0.00
2014-3-16,84,67,51,51,47,41,80,52,24,30.29,30.08,8,1,9,0.00
2014-3-17,73,61,52,49,45,37,73,56,39,30.10,29.86,15,4,16,0.00
2014-3-18,73,58,44,45,40,37,81,53,34,29.95,29.85,6,1,10,0.00
2014-3-19,79,63,47,46,41,27,80,49,15,30.06,29.95,10,1,10,0.00
2014-3-20,80,64,47,47,42,36,75,47,22,30.02,29.85,10,1,10,0.00
2014-3-21,80,66,51,50,46,41,81,51,27,29.91,29.81,12,2,12,0.00
2014-3-22,76,62,48,49,45,40,83,57,29,30.04,29.88,10,1,10,0.00
2014-3-23,79,64,47,48,43,39,80,51,25,30.10,29.98,10,1,10,0.00
2014-3-24,82,65,48,49,45,39,80,51,25,30.10,29.93,9,1,10,0.00
2014-3-25,78,64,51,54,45,31,79,54,19,29.96,29.76,16,3,16,0.00
2014-3-26,61,57,52,51,50,46,92,77,61,29.96,29.80,14,3,14,0.13
2014-3-27,68,57,46,51,46,39,96,70,37,30.08,29.96,14,2,14,0.01
2014-3-28,72,59,46,49,45,42,89,63,36,30.20,30.07,9,1,10,0.00
2014-3-29,78,63,49,54,47,42,88,60,30,30.11,29.85,21,3,25,0.05
2014-3-30,64,56,49,50,47,42,94,74,48,30.13,29.99,17,2,23,0.30
2014-3-31,68,55,46,49,46,38,91,75,35,30.04,29.82,22,3,22,0.17